sensor_id;sensor_type;location;lat;lon;timestamp;pressure;altitude;pressure_sealevel;temperature;humidity
62928;BME280;51070;52.236;-0.892;2023-06-14T00:01:41;100977.94;;;15.96;51.48
62928;BME280;51070;52.236;-0.892;2023-06-14T00:04:06;100979.28;;;15.94;51.42
62928;BME280;51070;52.236;-0.892;2023-06-14T00:06:34;100979.08;;;15.91;51.70
62928;BME280;51070;52.236;-0.892;2023-06-14T00:08:59;100981.10;;;15.86;51.81
62928;BME280;51070;52.236;-0.892;2023-06-14T00:11:25;100982.77;;;15.81;51.95
62928;BME280;51070;52.236;-0.892;2023-06-14T00:13:52;100978.73;;;15.79;52.16
62928;BME280;51070;52.236;-0.892;2023-06-14T00:16:18;100977.43;;;15.74;52.40
62928;BME280;51070;52.236;-0.892;2023-06-14T00:18:45;100975.77;;;15.67;52.51
62928;BME280;51070;52.236;-0.892;2023-06-14T00:21:11;100976.37;;;15.62;52.52
62928;BME280;51070;52.236;-0.892;2023-06-14T00:23:37;100975.06;;;15.57;52.61
62928;BME280;51070;52.236;-0.892;2023-06-14T00:26:03;100980.07;;;15.54;52.62
62928;BME280;51070;52.236;-0.892;2023-06-14T00:28:29;100976.98;;;15.47;52.65
62928;BME280;51070;52.236;-0.892;2023-06-14T00:30:54;100978.16;;;15.46;52.97
62928;BME280;51070;52.236;-0.892;2023-06-14T00:33:20;100975.05;;;15.46;53.14
62928;BME280;51070;52.236;-0.892;2023-06-14T00:35:45;100974.84;;;15.44;53.35
62928;BME280;51070;52.236;-0.892;2023-06-14T00:38:12;100977.42;;;15.42;53.73
62928;BME280;51070;52.236;-0.892;2023-06-14T00:40:37;100973.72;;;15.40;53.99
62928;BME280;51070;52.236;-0.892;2023-06-14T00:43:02;100973.69;;;15.37;54.44
62928;BME280;51070;52.236;-0.892;2023-06-14T00:45:28;100968.91;;;15.34;54.71
62928;BME280;51070;52.236;-0.892;2023-06-14T00:47:53;100966.46;;;15.33;54.90
62928;BME280;51070;52.236;-0.892;2023-06-14T00:50:20;100967.98;;;15.30;55.21
62928;BME280;51070;52.236;-0.892;2023-06-14T00:52:47;100971.42;;;15.29;55.30
62928;BME280;51070;52.236;-0.892;2023-06-14T00:55:12;100967.44;;;15.29;55.52
62928;BME280;51070;52.236;-0.892;2023-06-14T00:57:38;100972.11;;;15.28;55.94
62928;BME280;51070;52.236;-0.892;2023-06-14T01:00:06;100977.83;;;15.25;56.24
62928;BME280;51070;52.236;-0.892;2023-06-14T01:02:36;100973.90;;;15.20;56.51
62928;BME280;51070;52.236;-0.892;2023-06-14T01:05:02;100971.12;;;15.20;56.64
62928;BME280;51070;52.236;-0.892;2023-06-14T01:07:51;100968.83;;;15.19;56.91
62928;BME280;51070;52.236;-0.892;2023-06-14T01:12:50;100961.96;;;15.14;57.29
62928;BME280;51070;52.236;-0.892;2023-06-14T01:15:20;100959.61;;;15.09;57.60
62928;BME280;51070;52.236;-0.892;2023-06-14T01:17:49;100959.40;;;15.07;57.76
62928;BME280;51070;52.236;-0.892;2023-06-14T01:20:17;100960.08;;;15.06;58.15
62928;BME280;51070;52.236;-0.892;2023-06-14T01:22:51;100961.95;;;15.03;58.54
62928;BME280;51070;52.236;-0.892;2023-06-14T01:25:17;100965.55;;;15.00;58.93
62928;BME280;51070;52.236;-0.892;2023-06-14T01:27:48;100967.80;;;14.99;59.47
62928;BME280;51070;52.236;-0.892;2023-06-14T01:30:15;100965.65;;;14.97;59.67
62928;BME280;51070;52.236;-0.892;2023-06-14T01:32:40;100967.73;;;14.97;59.86
62928;BME280;51070;52.236;-0.892;2023-06-14T01:35:07;100962.55;;;14.98;60.02
62928;BME280;51070;52.236;-0.892;2023-06-14T01:37:33;100962.17;;;14.97;60.18
62928;BME280;51070;52.236;-0.892;2023-06-14T01:39:59;100960.87;;;14.92;60.51
62928;BME280;51070;52.236;-0.892;2023-06-14T01:42:25;100955.23;;;14.89;60.78
62928;BME280;51070;52.236;-0.892;2023-06-14T01:44:52;100950.11;;;14.84;61.02
62928;BME280;51070;52.236;-0.892;2023-06-14T01:47:19;100949.40;;;14.83;61.21
62928;BME280;51070;52.236;-0.892;2023-06-14T01:49:46;100947.49;;;14.83;61.25
62928;BME280;51070;52.236;-0.892;2023-06-14T01:52:12;100945.02;;;14.81;61.32
62928;BME280;51070;52.236;-0.892;2023-06-14T01:54:37;100946.89;;;14.80;61.60
62928;BME280;51070;52.236;-0.892;2023-06-14T01:57:08;100946.50;;;14.77;61.77
62928;BME280;51070;52.236;-0.892;2023-06-14T01:59:33;100941.04;;;14.73;61.80
62928;BME280;51070;52.236;-0.892;2023-06-14T02:02:02;100939.39;;;14.69;61.99
62928;BME280;51070;52.236;-0.892;2023-06-14T02:04:28;100937.96;;;14.67;62.15
62928;BME280;51070;52.236;-0.892;2023-06-14T02:06:53;100936.47;;;14.62;62.28
62928;BME280;51070;52.236;-0.892;2023-06-14T02:09:19;100935.54;;;14.59;62.40
62928;BME280;51070;52.236;-0.892;2023-06-14T02:11:44;100935.16;;;14.56;62.59
62928;BME280;51070;52.236;-0.892;2023-06-14T02:14:10;100932.29;;;14.52;62.70
62928;BME280;51070;52.236;-0.892;2023-06-14T02:16:37;100933.82;;;14.50;62.81
62928;BME280;51070;52.236;-0.892;2023-06-14T02:19:04;100934.46;;;14.48;62.92
62928;BME280;51070;52.236;-0.892;2023-06-14T02:21:30;100935.47;;;14.47;63.18
62928;BME280;51070;52.236;-0.892;2023-06-14T02:23:56;100938.25;;;14.47;63.20
62928;BME280;51070;52.236;-0.892;2023-06-14T02:26:21;100941.58;;;14.48;63.05
62928;BME280;51070;52.236;-0.892;2023-06-14T02:28:48;100939.83;;;14.47;63.12
62928;BME280;51070;52.236;-0.892;2023-06-14T02:31:13;100938.44;;;14.47;63.28
62928;BME280;51070;52.236;-0.892;2023-06-14T02:33:39;100936.31;;;14.44;63.36
62928;BME280;51070;52.236;-0.892;2023-06-14T02:36:05;100939.23;;;14.43;63.13
62928;BME280;51070;52.236;-0.892;2023-06-14T02:38:31;100937.11;;;14.42;63.25
62928;BME280;51070;52.236;-0.892;2023-06-14T02:40:57;100939.30;;;14.38;63.35
62928;BME280;51070;52.236;-0.892;2023-06-14T02:43:24;100940.22;;;14.33;63.42
62928;BME280;51070;52.236;-0.892;2023-06-14T02:45:50;100936.98;;;14.29;63.55
62928;BME280;51070;52.236;-0.892;2023-06-14T02:48:15;100933.57;;;14.23;63.52
62928;BME280;51070;52.236;-0.892;2023-06-14T02:50:41;100933.28;;;14.17;63.61
62928;BME280;51070;52.236;-0.892;2023-06-14T02:53:07;100932.17;;;14.15;63.85
62928;BME280;51070;52.236;-0.892;2023-06-14T02:55:33;100933.55;;;14.13;63.92
62928;BME280;51070;52.236;-0.892;2023-06-14T02:57:58;100929.98;;;14.10;64.02
62928;BME280;51070;52.236;-0.892;2023-06-14T03:00:24;100931.52;;;14.08;63.96
62928;BME280;51070;52.236;-0.892;2023-06-14T03:02:49;100932.33;;;14.06;63.92
62928;BME280;51070;52.236;-0.892;2023-06-14T03:05:16;100932.61;;;14.03;64.03
62928;BME280;51070;52.236;-0.892;2023-06-14T03:07:46;100934.45;;;13.99;64.29
62928;BME280;51070;52.236;-0.892;2023-06-14T03:10:12;100932.10;;;13.95;64.44
62928;BME280;51070;52.236;-0.892;2023-06-14T03:12:39;100930.18;;;13.94;64.51
62928;BME280;51070;52.236;-0.892;2023-06-14T03:15:05;100930.59;;;13.89;64.62
62928;BME280;51070;52.236;-0.892;2023-06-14T03:17:30;100925.67;;;13.86;64.64
62928;BME280;51070;52.236;-0.892;2023-06-14T03:19:59;100928.11;;;13.86;64.73
62928;BME280;51070;52.236;-0.892;2023-06-14T03:22:25;100930.55;;;13.88;64.98
62928;BME280;51070;52.236;-0.892;2023-06-14T03:24:51;100936.39;;;13.93;64.94
62928;BME280;51070;52.236;-0.892;2023-06-14T03:27:17;100937.52;;;13.96;64.87
62928;BME280;51070;52.236;-0.892;2023-06-14T03:29:44;100937.38;;;13.98;64.82
62928;BME280;51070;52.236;-0.892;2023-06-14T03:32:09;100937.20;;;13.99;64.75
62928;BME280;51070;52.236;-0.892;2023-06-14T03:34:35;100934.42;;;13.98;64.87
62928;BME280;51070;52.236;-0.892;2023-06-14T03:37:00;100941.01;;;13.97;64.68
62928;BME280;51070;52.236;-0.892;2023-06-14T03:39:26;100942.52;;;13.94;64.87
62928;BME280;51070;52.236;-0.892;2023-06-14T03:41:51;100941.43;;;13.92;64.84
62928;BME280;51070;52.236;-0.892;2023-06-14T03:44:17;100945.71;;;13.90;64.87
62928;BME280;51070;52.236;-0.892;2023-06-14T03:46:44;100951.20;;;13.86;64.98
62928;BME280;51070;52.236;-0.892;2023-06-14T03:49:11;100956.52;;;13.84;64.97
62928;BME280;51070;52.236;-0.892;2023-06-14T03:51:36;100956.08;;;13.79;64.96
62928;BME280;51070;52.236;-0.892;2023-06-14T03:54:02;100954.30;;;13.70;65.08
62928;BME280;51070;52.236;-0.892;2023-06-14T03:56:27;100949.10;;;13.63;65.10
62928;BME280;51070;52.236;-0.892;2023-06-14T03:58:53;100950.75;;;13.59;65.24
62928;BME280;51070;52.236;-0.892;2023-06-14T04:01:18;100949.11;;;13.56;65.35
62928;BME280;51070;52.236;-0.892;2023-06-14T04:03:44;100950.45;;;13.54;65.16
62928;BME280;51070;52.236;-0.892;2023-06-14T04:06:09;100949.50;;;13.51;64.99
62928;BME280;51070;52.236;-0.892;2023-06-14T04:08:34;100944.74;;;13.48;65.05
62928;BME280;51070;52.236;-0.892;2023-06-14T04:11:01;100944.91;;;13.48;65.31
62928;BME280;51070;52.236;-0.892;2023-06-14T04:13:26;100947.52;;;13.48;65.48
62928;BME280;51070;52.236;-0.892;2023-06-14T04:15:52;100949.98;;;13.48;65.75
62928;BME280;51070;52.236;-0.892;2023-06-14T04:18:17;100948.47;;;13.51;65.71
62928;BME280;51070;52.236;-0.892;2023-06-14T04:20:44;100949.92;;;13.54;65.96
62928;BME280;51070;52.236;-0.892;2023-06-14T04:23:19;100951.50;;;13.55;65.93
62928;BME280;51070;52.236;-0.892;2023-06-14T04:25:45;100952.73;;;13.55;66.13
62928;BME280;51070;52.236;-0.892;2023-06-14T04:28:13;100952.75;;;13.56;66.18
62928;BME280;51070;52.236;-0.892;2023-06-14T04:30:41;100954.02;;;13.58;66.05
62928;BME280;51070;52.236;-0.892;2023-06-14T04:33:07;100951.63;;;13.60;66.26
62928;BME280;51070;52.236;-0.892;2023-06-14T04:35:33;100950.25;;;13.61;66.18
62928;BME280;51070;52.236;-0.892;2023-06-14T04:38:01;100944.87;;;13.60;66.27
62928;BME280;51070;52.236;-0.892;2023-06-14T04:40:30;100945.05;;;13.60;66.30
62928;BME280;51070;52.236;-0.892;2023-06-14T04:42:55;100945.40;;;13.61;66.13
62928;BME280;51070;52.236;-0.892;2023-06-14T04:45:20;100946.46;;;13.62;66.29
62928;BME280;51070;52.236;-0.892;2023-06-14T04:47:47;100945.13;;;13.64;66.36
62928;BME280;51070;52.236;-0.892;2023-06-14T04:50:12;100947.74;;;13.64;66.43
62928;BME280;51070;52.236;-0.892;2023-06-14T04:52:38;100952.07;;;13.64;66.77
62928;BME280;51070;52.236;-0.892;2023-06-14T04:55:04;100954.54;;;13.66;66.79
62928;BME280;51070;52.236;-0.892;2023-06-14T04:57:31;100954.75;;;13.68;66.84
62928;BME280;51070;52.236;-0.892;2023-06-14T04:59:56;100954.31;;;13.71;67.13
62928;BME280;51070;52.236;-0.892;2023-06-14T05:02:23;100956.70;;;13.75;66.91
62928;BME280;51070;52.236;-0.892;2023-06-14T05:04:49;100956.03;;;13.77;67.25
62928;BME280;51070;52.236;-0.892;2023-06-14T05:07:15;100954.38;;;13.81;67.46
62928;BME280;51070;52.236;-0.892;2023-06-14T05:09:40;100957.85;;;13.88;67.33
62928;BME280;51070;52.236;-0.892;2023-06-14T05:12:06;100956.56;;;13.93;67.21
62928;BME280;51070;52.236;-0.892;2023-06-14T05:14:35;100957.38;;;13.99;67.33
62928;BME280;51070;52.236;-0.892;2023-06-14T05:17:01;100954.36;;;14.04;67.30
62928;BME280;51070;52.236;-0.892;2023-06-14T05:19:28;100954.79;;;14.07;67.43
62928;BME280;51070;52.236;-0.892;2023-06-14T05:21:53;100949.65;;;14.11;67.19
62928;BME280;51070;52.236;-0.892;2023-06-14T05:24:20;100949.00;;;14.12;67.36
62928;BME280;51070;52.236;-0.892;2023-06-14T05:26:46;100948.52;;;14.14;67.53
62928;BME280;51070;52.236;-0.892;2023-06-14T05:29:12;100952.91;;;14.17;67.69
62928;BME280;51070;52.236;-0.892;2023-06-14T05:31:37;100951.95;;;14.21;67.78
62928;BME280;51070;52.236;-0.892;2023-06-14T05:34:03;100949.98;;;14.27;67.70
62928;BME280;51070;52.236;-0.892;2023-06-14T05:36:28;100951.86;;;14.34;67.73
62928;BME280;51070;52.236;-0.892;2023-06-14T05:38:54;100945.61;;;14.41;67.77
62928;BME280;51070;52.236;-0.892;2023-06-14T05:41:27;100942.77;;;14.47;67.75
62928;BME280;51070;52.236;-0.892;2023-06-14T05:43:54;100945.17;;;14.52;67.97
62928;BME280;51070;52.236;-0.892;2023-06-14T05:46:19;100947.23;;;14.60;67.89
62928;BME280;51070;52.236;-0.892;2023-06-14T05:48:51;100942.98;;;14.65;67.96
62928;BME280;51070;52.236;-0.892;2023-06-14T05:51:16;100937.00;;;14.71;67.92
62928;BME280;51070;52.236;-0.892;2023-06-14T05:53:50;100939.88;;;14.77;67.92
62928;BME280;51070;52.236;-0.892;2023-06-14T05:56:16;100942.20;;;14.80;68.08
62928;BME280;51070;52.236;-0.892;2023-06-14T05:58:45;100939.52;;;14.85;68.23
62928;BME280;51070;52.236;-0.892;2023-06-14T06:01:11;100941.34;;;14.90;68.28
62928;BME280;51070;52.236;-0.892;2023-06-14T06:03:36;100938.83;;;14.96;68.38
62928;BME280;51070;52.236;-0.892;2023-06-14T06:06:02;100942.98;;;15.04;68.47
62928;BME280;51070;52.236;-0.892;2023-06-14T06:08:28;100945.38;;;15.11;68.64
62928;BME280;51070;52.236;-0.892;2023-06-14T06:10:54;100942.35;;;15.50;68.42
62928;BME280;51070;52.236;-0.892;2023-06-14T06:13:19;100941.27;;;17.43;65.58
62928;BME280;51070;52.236;-0.892;2023-06-14T06:15:45;100937.76;;;20.12;59.87
62928;BME280;51070;52.236;-0.892;2023-06-14T06:18:11;100933.38;;;22.65;54.38
62928;BME280;51070;52.236;-0.892;2023-06-14T06:20:36;100932.39;;;24.84;49.33
62928;BME280;51070;52.236;-0.892;2023-06-14T06:23:02;100928.77;;;26.84;45.15
62928;BME280;51070;52.236;-0.892;2023-06-14T06:25:27;100937.29;;;28.62;41.19
62928;BME280;51070;52.236;-0.892;2023-06-14T06:27:53;100936.19;;;30.04;37.90
62928;BME280;51070;52.236;-0.892;2023-06-14T06:30:19;100941.86;;;30.89;35.77
62928;BME280;51070;52.236;-0.892;2023-06-14T06:32:45;100942.59;;;31.53;34.52
62928;BME280;51070;52.236;-0.892;2023-06-14T06:35:11;100940.53;;;32.62;32.48
62928;BME280;51070;52.236;-0.892;2023-06-14T06:37:38;100940.35;;;33.61;31.12
62928;BME280;51070;52.236;-0.892;2023-06-14T06:40:04;100939.23;;;34.57;29.50
62928;BME280;51070;52.236;-0.892;2023-06-14T06:42:31;100942.46;;;35.33;27.92
62928;BME280;51070;52.236;-0.892;2023-06-14T06:44:57;100941.02;;;35.98;26.97
62928;BME280;51070;52.236;-0.892;2023-06-14T06:47:23;100939.36;;;36.55;26.03
62928;BME280;51070;52.236;-0.892;2023-06-14T06:49:49;100943.65;;;37.08;25.41
62928;BME280;51070;52.236;-0.892;2023-06-14T06:52:14;100949.28;;;37.58;24.45
62928;BME280;51070;52.236;-0.892;2023-06-14T06:54:39;100946.06;;;38.06;23.76
62928;BME280;51070;52.236;-0.892;2023-06-14T06:57:05;100947.23;;;38.50;23.23
62928;BME280;51070;52.236;-0.892;2023-06-14T06:59:31;100947.87;;;38.90;22.58
62928;BME280;51070;52.236;-0.892;2023-06-14T07:01:57;100946.52;;;39.26;22.06
62928;BME280;51070;52.236;-0.892;2023-06-14T07:04:23;100949.75;;;39.58;21.30
62928;BME280;51070;52.236;-0.892;2023-06-14T07:06:48;100947.50;;;39.80;20.88
62928;BME280;51070;52.236;-0.892;2023-06-14T07:09:13;100952.23;;;40.10;20.89
62928;BME280;51070;52.236;-0.892;2023-06-14T07:11:42;100954.05;;;40.41;20.38
62928;BME280;51070;52.236;-0.892;2023-06-14T07:14:07;100958.64;;;40.66;19.95
62928;BME280;51070;52.236;-0.892;2023-06-14T07:16:33;100958.27;;;40.90;20.16
62928;BME280;51070;52.236;-0.892;2023-06-14T07:18:59;100957.28;;;41.09;19.66
62928;BME280;51070;52.236;-0.892;2023-06-14T07:21:25;100959.98;;;41.31;19.35
62928;BME280;51070;52.236;-0.892;2023-06-14T07:23:53;100964.17;;;41.63;18.95
62928;BME280;51070;52.236;-0.892;2023-06-14T07:26:19;100960.70;;;41.88;18.76
62928;BME280;51070;52.236;-0.892;2023-06-14T07:28:46;100961.06;;;42.15;18.70
62928;BME280;51070;52.236;-0.892;2023-06-14T07:31:12;100957.02;;;42.43;17.88
62928;BME280;51070;52.236;-0.892;2023-06-14T07:33:38;100956.98;;;42.41;17.77
62928;BME280;51070;52.236;-0.892;2023-06-14T07:36:03;100961.23;;;42.37;17.82
62928;BME280;51070;52.236;-0.892;2023-06-14T07:38:28;100964.22;;;42.47;17.78
62928;BME280;51070;52.236;-0.892;2023-06-14T07:40:54;100963.65;;;42.53;17.60
62928;BME280;51070;52.236;-0.892;2023-06-14T07:43:19;100970.70;;;42.64;17.48
62928;BME280;51070;52.236;-0.892;2023-06-14T07:45:45;100971.41;;;42.81;17.22
62928;BME280;51070;52.236;-0.892;2023-06-14T07:48:11;100974.97;;;42.76;17.14
62928;BME280;51070;52.236;-0.892;2023-06-14T07:50:36;100974.02;;;42.82;17.40
62928;BME280;51070;52.236;-0.892;2023-06-14T07:53:02;100972.63;;;43.07;17.29
62928;BME280;51070;52.236;-0.892;2023-06-14T07:55:27;100973.54;;;43.32;16.94
62928;BME280;51070;52.236;-0.892;2023-06-14T07:57:54;100973.34;;;43.44;17.00
62928;BME280;51070;52.236;-0.892;2023-06-14T08:00:20;100970.92;;;43.69;16.55
62928;BME280;51070;52.236;-0.892;2023-06-14T08:02:46;100973.31;;;43.96;16.31
62928;BME280;51070;52.236;-0.892;2023-06-14T08:05:12;100972.10;;;44.02;16.18
62928;BME280;51070;52.236;-0.892;2023-06-14T08:07:39;100973.35;;;44.09;16.54
62928;BME280;51070;52.236;-0.892;2023-06-14T08:10:05;100981.67;;;44.29;16.15
62928;BME280;51070;52.236;-0.892;2023-06-14T08:12:31;100979.77;;;44.48;16.11
62928;BME280;51070;52.236;-0.892;2023-06-14T08:14:56;100976.77;;;44.62;15.98
62928;BME280;51070;52.236;-0.892;2023-06-14T08:17:22;100979.54;;;44.69;15.97
62928;BME280;51070;52.236;-0.892;2023-06-14T08:19:47;100981.02;;;44.79;15.59
62928;BME280;51070;52.236;-0.892;2023-06-14T08:22:12;100982.81;;;44.94;15.61
62928;BME280;51070;52.236;-0.892;2023-06-14T08:24:38;100983.44;;;45.15;15.83
62928;BME280;51070;52.236;-0.892;2023-06-14T08:27:05;100985.31;;;45.28;15.88
62928;BME280;51070;52.236;-0.892;2023-06-14T08:29:31;100987.64;;;45.28;15.55
62928;BME280;51070;52.236;-0.892;2023-06-14T08:31:56;100991.20;;;45.09;15.58
62928;BME280;51070;52.236;-0.892;2023-06-14T08:34:22;100985.31;;;45.01;15.55
62928;BME280;51070;52.236;-0.892;2023-06-14T08:36:50;100993.06;;;45.19;15.41
62928;BME280;51070;52.236;-0.892;2023-06-14T08:39:16;100989.52;;;45.16;15.63
62928;BME280;51070;52.236;-0.892;2023-06-14T08:41:43;100991.20;;;45.18;15.75
62928;BME280;51070;52.236;-0.892;2023-06-14T08:44:11;100995.40;;;45.21;15.84
62928;BME280;51070;52.236;-0.892;2023-06-14T08:46:37;100990.27;;;45.29;15.74
62928;BME280;51070;52.236;-0.892;2023-06-14T08:49:04;100991.38;;;45.37;15.75
62928;BME280;51070;52.236;-0.892;2023-06-14T08:51:31;100989.73;;;45.47;15.33
62928;BME280;51070;52.236;-0.892;2023-06-14T08:54:00;100992.07;;;45.36;15.38
62928;BME280;51070;52.236;-0.892;2023-06-14T08:56:28;100992.13;;;45.37;15.35
62928;BME280;51070;52.236;-0.892;2023-06-14T08:58:55;100992.96;;;45.38;15.68
62928;BME280;51070;52.236;-0.892;2023-06-14T09:01:22;100994.67;;;45.26;15.74
62928;BME280;51070;52.236;-0.892;2023-06-14T09:03:49;100995.21;;;45.16;15.78
62928;BME280;51070;52.236;-0.892;2023-06-14T09:06:16;100997.29;;;45.22;15.66
62928;BME280;51070;52.236;-0.892;2023-06-14T09:08:46;100995.50;;;45.20;15.68
62928;BME280;51070;52.236;-0.892;2023-06-14T09:11:13;100996.65;;;45.13;15.09
62928;BME280;51070;52.236;-0.892;2023-06-14T09:13:40;100995.15;;;44.86;15.47
62928;BME280;51070;52.236;-0.892;2023-06-14T09:16:06;100995.51;;;44.61;15.71
62928;BME280;51070;52.236;-0.892;2023-06-14T09:18:35;100992.88;;;44.67;15.78
62928;BME280;51070;52.236;-0.892;2023-06-14T09:21:01;100994.48;;;44.82;15.33
62928;BME280;51070;52.236;-0.892;2023-06-14T09:23:26;100992.27;;;44.83;15.44
62928;BME280;51070;52.236;-0.892;2023-06-14T09:25:52;100992.77;;;44.77;15.94
62928;BME280;51070;52.236;-0.892;2023-06-14T09:28:17;100993.04;;;44.77;16.00
62928;BME280;51070;52.236;-0.892;2023-06-14T09:30:42;100997.53;;;44.73;15.64
62928;BME280;51070;52.236;-0.892;2023-06-14T09:33:08;100994.70;;;44.57;15.73
62928;BME280;51070;52.236;-0.892;2023-06-14T09:35:33;101001.91;;;44.32;15.86
62928;BME280;51070;52.236;-0.892;2023-06-14T09:37:59;100999.23;;;44.11;16.23
62928;BME280;51070;52.236;-0.892;2023-06-14T09:40:24;100998.88;;;44.12;16.22
62928;BME280;51070;52.236;-0.892;2023-06-14T09:42:51;100998.22;;;44.01;16.18
62928;BME280;51070;52.236;-0.892;2023-06-14T09:45:17;100999.40;;;43.93;16.25
62928;BME280;51070;52.236;-0.892;2023-06-14T09:47:49;100995.94;;;43.86;16.26
62928;BME280;51070;52.236;-0.892;2023-06-14T09:50:14;100995.17;;;43.88;16.48
62928;BME280;51070;52.236;-0.892;2023-06-14T09:52:41;100994.93;;;43.87;16.30
62928;BME280;51070;52.236;-0.892;2023-06-14T09:55:12;100995.73;;;43.74;16.33
62928;BME280;51070;52.236;-0.892;2023-06-14T09:57:41;100995.75;;;43.64;16.62
62928;BME280;51070;52.236;-0.892;2023-06-14T10:00:09;100997.50;;;43.50;16.85
62928;BME280;51070;52.236;-0.892;2023-06-14T10:02:39;100998.90;;;43.29;16.87
62928;BME280;51070;52.236;-0.892;2023-06-14T10:05:09;100998.06;;;43.07;16.98
62928;BME280;51070;52.236;-0.892;2023-06-14T10:07:53;100997.47;;;42.84;16.91
62928;BME280;51070;52.236;-0.892;2023-06-14T10:10:20;100994.50;;;42.53;17.32
62928;BME280;51070;52.236;-0.892;2023-06-14T10:12:47;100990.80;;;42.41;17.44
62928;BME280;51070;52.236;-0.892;2023-06-14T10:15:20;100991.02;;;42.22;17.36
62928;BME280;51070;52.236;-0.892;2023-06-14T10:17:56;100994.30;;;41.80;17.75
62928;BME280;51070;52.236;-0.892;2023-06-14T10:23:01;100992.24;;;41.07;18.52
62928;BME280;51070;52.236;-0.892;2023-06-14T10:25:30;100992.66;;;40.79;18.76
62928;BME280;51070;52.236;-0.892;2023-06-14T10:28:03;100990.66;;;40.40;19.05
62928;BME280;51070;52.236;-0.892;2023-06-14T10:30:29;100992.23;;;39.98;19.54
62928;BME280;51070;52.236;-0.892;2023-06-14T10:33:04;100992.98;;;39.66;19.98
62928;BME280;51070;52.236;-0.892;2023-06-14T10:35:30;100992.15;;;39.40;20.68
62928;BME280;51070;52.236;-0.892;2023-06-14T10:38:06;100987.78;;;39.23;20.86
62928;BME280;51070;52.236;-0.892;2023-06-14T10:40:33;100987.42;;;39.03;21.05
62928;BME280;51070;52.236;-0.892;2023-06-14T10:42:59;100985.84;;;38.88;21.21
62928;BME280;51070;52.236;-0.892;2023-06-14T10:45:24;100986.70;;;38.75;21.26
62928;BME280;51070;52.236;-0.892;2023-06-14T10:47:50;100983.69;;;38.47;21.39
62928;BME280;51070;52.236;-0.892;2023-06-14T10:50:27;100983.10;;;38.12;21.87
62928;BME280;51070;52.236;-0.892;2023-06-14T10:52:54;100990.08;;;37.85;21.59
62928;BME280;51070;52.236;-0.892;2023-06-14T10:55:21;100988.92;;;37.67;22.45
62928;BME280;51070;52.236;-0.892;2023-06-14T10:57:52;100988.67;;;37.56;22.30
62928;BME280;51070;52.236;-0.892;2023-06-14T11:00:23;100984.20;;;37.30;22.41
62928;BME280;51070;52.236;-0.892;2023-06-14T11:05:56;100979.85;;;36.57;23.30
62928;BME280;51070;52.236;-0.892;2023-06-14T11:08:49;100971.97;;;36.39;23.30
62928;BME280;51070;52.236;-0.892;2023-06-14T11:11:22;100976.12;;;36.21;23.52
62928;BME280;51070;52.236;-0.892;2023-06-14T11:13:51;100969.98;;;36.06;24.10
62928;BME280;51070;52.236;-0.892;2023-06-14T11:16:17;100968.86;;;35.94;24.00
62928;BME280;51070;52.236;-0.892;2023-06-14T11:18:46;100968.58;;;35.72;24.09
62928;BME280;51070;52.236;-0.892;2023-06-14T11:21:16;100964.13;;;35.37;23.74
62928;BME280;51070;52.236;-0.892;2023-06-14T11:23:51;100963.73;;;35.03;24.00
62928;BME280;51070;52.236;-0.892;2023-06-14T11:26:30;100961.13;;;34.77;24.23
62928;BME280;51070;52.236;-0.892;2023-06-14T11:29:00;100963.89;;;34.59;24.43
62928;BME280;51070;52.236;-0.892;2023-06-14T11:31:27;100958.17;;;34.36;24.70
62928;BME280;51070;52.236;-0.892;2023-06-14T11:33:54;100963.98;;;34.21;24.64
62928;BME280;51070;52.236;-0.892;2023-06-14T11:36:20;100955.97;;;34.05;24.77
62928;BME280;51070;52.236;-0.892;2023-06-14T11:38:45;100958.42;;;33.83;24.96
62928;BME280;51070;52.236;-0.892;2023-06-14T11:41:11;100962.06;;;33.66;25.33
62928;BME280;51070;52.236;-0.892;2023-06-14T11:43:36;100962.31;;;33.56;25.06
62928;BME280;51070;52.236;-0.892;2023-06-14T11:46:02;100958.52;;;33.51;25.52
62928;BME280;51070;52.236;-0.892;2023-06-14T11:48:42;100958.46;;;33.40;25.96
62928;BME280;51070;52.236;-0.892;2023-06-14T11:51:07;100958.98;;;33.37;26.02
62928;BME280;51070;52.236;-0.892;2023-06-14T11:53:33;100954.79;;;33.36;25.82
62928;BME280;51070;52.236;-0.892;2023-06-14T11:55:59;100951.45;;;33.34;25.62
62928;BME280;51070;52.236;-0.892;2023-06-14T11:58:25;100946.91;;;33.32;25.01
62928;BME280;51070;52.236;-0.892;2023-06-14T12:00:52;100948.31;;;33.27;25.56
62928;BME280;51070;52.236;-0.892;2023-06-14T12:03:22;100952.45;;;33.32;25.83
62928;BME280;51070;52.236;-0.892;2023-06-14T12:05:48;100954.05;;;33.42;25.31
62928;BME280;51070;52.236;-0.892;2023-06-14T12:08:14;100950.19;;;33.22;25.08
62928;BME280;51070;52.236;-0.892;2023-06-14T12:10:42;100945.25;;;33.08;25.33
62928;BME280;51070;52.236;-0.892;2023-06-14T12:13:09;100945.53;;;33.13;25.37
62928;BME280;51070;52.236;-0.892;2023-06-14T12:15:35;100942.73;;;33.09;25.32
62928;BME280;51070;52.236;-0.892;2023-06-14T12:18:00;100947.90;;;33.12;25.52
62928;BME280;51070;52.236;-0.892;2023-06-14T12:20:30;100940.65;;;33.17;25.72
62928;BME280;51070;52.236;-0.892;2023-06-14T12:22:58;100940.89;;;33.03;25.65
62928;BME280;51070;52.236;-0.892;2023-06-14T12:25:30;100938.27;;;32.96;24.95
62928;BME280;51070;52.236;-0.892;2023-06-14T12:28:03;100939.09;;;32.98;25.14
62928;BME280;51070;52.236;-0.892;2023-06-14T12:30:29;100942.15;;;32.94;25.37
62928;BME280;51070;52.236;-0.892;2023-06-14T12:32:55;100944.64;;;32.91;26.07
62928;BME280;51070;52.236;-0.892;2023-06-14T12:35:20;100937.16;;;32.97;25.36
62928;BME280;51070;52.236;-0.892;2023-06-14T12:37:46;100939.21;;;32.93;25.73
62928;BME280;51070;52.236;-0.892;2023-06-14T12:40:12;100940.91;;;32.90;25.95
62928;BME280;51070;52.236;-0.892;2023-06-14T12:42:39;100943.73;;;32.91;25.63
62928;BME280;51070;52.236;-0.892;2023-06-14T12:45:05;100944.71;;;32.90;25.71
62928;BME280;51070;52.236;-0.892;2023-06-14T12:47:31;100945.92;;;32.84;25.96